Time;durP1;ratioP1;P1;durP2;ratioP2;P2;SDS_P1;SDS_P2;PMS_P1;PMS_P2;Temp;Humidity;BMP_temperature;BMP_pressure;BME280_temperature;BME280_humidity;BME280_pressure;Samples;Min_cycle;Max_cycle;Signal;HPM_P1;HPM_P2
2022/02/06 00:00:01;;;;;;;13.93;6.10;;;;;;;;;;2113986;28;20043;-46
2022/02/06 00:01:02;;;;;;;12.75;7.38;;;;;;;;;;2113104;28;20349;-45
2022/02/06 00:02:04;;;;;;;11.95;7.38;;;;;;;;;;2109311;28;20052;-45
2022/02/06 00:03:05;;;;;;;14.15;6.47;;;;;;;;;;2115290;28;20122;-46
2022/02/06 00:04:06;;;;;;;12.70;7.80;;;;;;;;;;2115290;28;20082;-46
2022/02/06 00:05:10;;;;;;;12.63;7.18;;;;;;;;;;2112151;28;20047;-46
2022/02/06 00:06:11;;;;;;;20.52;8.07;;;;;;;;;;2115354;28;20079;-45
2022/02/06 00:07:12;;;;;;;15.87;6.20;;;;;;;;;;2113818;28;20042;-47
2022/02/06 00:08:13;;;;;;;15.82;8.35;;;;;;;;;;2107859;28;20050;-46
2022/02/06 00:09:14;;;;;;;14.90;6.40;;;;;;;;;;2106859;28;20131;-46
2022/02/06 00:10:16;;;;;;;14.68;6.75;;;;;;;;;;2109652;28;20133;-46
2022/02/06 00:11:17;;;;;;;15.85;7.78;;;;;;;;;;2114554;28;20083;-47
2022/02/06 00:12:19;;;;;;;12.32;5.70;;;;;;;;;;2115420;28;20047;-45
2022/02/06 00:13:20;;;;;;;12.95;7.18;;;;;;;;;;2112022;28;20077;-46
2022/02/06 00:14:21;;;;;;;12.40;6.57;;;;;;;;;;2114648;28;20048;-46
2022/02/06 00:15:23;;;;;;;11.70;7.07;;;;;;;;;;2115188;28;20446;-45
2022/02/06 00:16:24;;;;;;;7.25;3.85;;;;;;;;;;2108475;28;20128;-45
2022/02/06 00:17:28;;;;;;;11.00;5.83;;;;;;;;;;2106794;28;20409;-45
2022/02/06 00:18:29;;;;;;;10.50;6.10;;;;;;;;;;2108532;28;20469;-46
2022/02/06 00:19:30;;;;;;;9.77;4.90;;;;;;;;;;2108660;28;20443;-45
2022/02/06 00:20:35;;;;;;;12.25;7.50;;;;;;;;;;2109162;28;20044;-47
2022/02/06 00:21:36;;;;;;;7.93;4.10;;;;;;;;;;2112700;28;20140;-46
2022/02/06 00:22:41;;;;;;;17.63;7.75;;;;;;;;;;2114648;28;20138;-46
2022/02/06 00:23:44;;;;;;;15.00;5.22;;;;;;;;;;2115320;28;20043;-47
2022/02/06 00:24:53;;;;;;;14.75;7.65;;;;;;;;;;2111913;28;20052;-46
2022/02/06 00:25:59;;;;;;;16.77;7.43;;;;;;;;;;2115166;28;20127;-46
2022/02/06 00:27:05;;;;;;;10.35;5.85;;;;;;;;;;2114091;28;20043;-46
2022/02/06 00:28:18;;;;;;;15.95;7.68;;;;;;;;;;2113213;28;20142;-55
2022/02/06 00:29:25;;;;;;;9.75;4.90;;;;;;;;;;2115001;28;20217;-54
2022/02/06 00:30:33;;;;;;;13.10;6.82;;;;;;;;;;2108239;28;20044;-54
2022/02/06 00:31:46;;;;;;;10.30;5.03;;;;;;;;;;2115094;28;20180;-55
2022/02/06 00:32:52;;;;;;;13.00;6.03;;;;;;;;;;2113435;28;20039;-55
2022/02/06 00:34:26;;;;;;;10.60;5.78;;;;;;;;;;2106639;28;20566;-55
2022/02/06 00:36:00;;;;;;;11.45;5.43;;;;;;;;;;2110544;28;20055;-55
2022/02/06 00:38:27;;;;;;;12.40;5.40;;;;;;;;;;2109706;28;20049;-55
2022/02/06 00:39:29;;;;;;;13.45;7.85;;;;;;;;;;2113391;28;20092;-54
2022/02/06 00:40:44;;;;;;;13.80;6.50;;;;;;;;;;2115086;28;20496;-55
2022/02/06 00:41:45;;;;;;;12.98;7.53;;;;;;;;;;2111787;28;20044;-54
2022/02/06 00:42:46;;;;;;;12.93;6.28;;;;;;;;;;2115014;28;20607;-55
2022/02/06 00:43:49;;;;;;;11.47;5.37;;;;;;;;;;2114630;28;20077;-52
2022/02/06 00:44:50;;;;;;;12.05;7.03;;;;;;;;;;2111386;28;20422;-54
2022/02/06 00:45:51;;;;;;;11.50;6.03;;;;;;;;;;2115075;28;20089;-55
2022/02/06 00:46:52;;;;;;;10.80;7.50;;;;;;;;;;2112282;28;20078;-55
2022/02/06 00:47:53;;;;;;;9.85;5.57;;;;;;;;;;2107509;28;20040;-55
2022/02/06 00:48:57;;;;;;;15.02;9.02;;;;;;;;;;2106711;28;20083;-55
2022/02/06 00:49:59;;;;;;;12.65;7.50;;;;;;;;;;2109392;28;20067;-54
2022/02/06 00:51:05;;;;;;;10.88;5.63;;;;;;;;;;2114739;28;20051;-52
2022/02/06 00:52:11;;;;;;;12.98;7.43;;;;;;;;;;2115023;28;20048;-55
2022/02/06 00:53:16;;;;;;;11.63;6.25;;;;;;;;;;2110254;28;20047;-55
2022/02/06 00:54:17;;;;;;;13.57;7.35;;;;;;;;;;2114939;28;20576;-55
2022/02/06 00:55:19;;;;;;;21.42;8.50;;;;;;;;;;2114013;28;20237;-54
2022/02/06 00:56:20;;;;;;;14.40;6.50;;;;;;;;;;2112728;28;20131;-53
2022/02/06 00:57:21;;;;;;;11.60;7.70;;;;;;;;;;2115072;28;20100;-55
2022/02/06 00:58:22;;;;;;;9.20;4.63;;;;;;;;;;2114490;28;20127;-49
2022/02/06 00:59:24;;;;;;;11.35;7.50;;;;;;;;;;2106475;28;20048;-49
2022/02/06 01:00:25;;;;;;;12.02;6.40;;;;;;;;;;2106628;28;20104;-46
2022/02/06 01:01:26;;;;;;;13.20;7.18;;;;;;;;;;2107460;28;20088;-48
2022/02/06 01:02:27;;;;;;;11.15;6.00;;;;;;;;;;2106648;28;20076;-47
2022/02/06 01:03:28;;;;;;;11.48;7.40;;;;;;;;;;2106544;28;20394;-46
2022/02/06 01:04:34;;;;;;;13.68;5.30;;;;;;;;;;2112363;28;20131;-50
2022/02/06 01:05:37;;;;;;;12.52;5.70;;;;;;;;;;2115019;28;20123;-46
2022/02/06 01:06:38;;;;;;;11.90;5.37;;;;;;;;;;2114225;28;20058;-49
2022/02/06 01:07:39;;;;;;;14.77;7.30;;;;;;;;;;2112623;28;20065;-46
2022/02/06 01:08:41;;;;;;;10.13;4.82;;;;;;;;;;2115061;28;20048;-50
2022/02/06 01:09:42;;;;;;;14.30;8.05;;;;;;;;;;2114112;28;20071;-46
2022/02/06 01:10:43;;;;;;;13.23;5.37;;;;;;;;;;2114866;28;20420;-48
2022/02/06 01:11:45;;;;;;;10.45;5.70;;;;;;;;;;2114733;28;20516;-54
2022/02/06 01:12:53;;;;;;;11.38;7.22;;;;;;;;;;2111791;28;20449;-55
2022/02/06 01:14:04;;;;;;;12.23;6.53;;;;;;;;;;2114810;28;20130;-55
2022/02/06 01:15:10;;;;;;;13.85;5.78;;;;;;;;;;2113246;28;20082;-54
2022/02/06 01:16:16;;;;;;;11.10;6.10;;;;;;;;;;2106354;28;20127;-55
2022/02/06 01:17:25;;;;;;;12.45;5.75;;;;;;;;;;2113445;28;20484;-54
2022/02/06 01:18:32;;;;;;;10.75;5.88;;;;;;;;;;2109788;28;20056;-55
2022/02/06 01:19:43;;;;;;;13.00;6.20;;;;;;;;;;2114824;28;20493;-51
2022/02/06 01:20:47;;;;;;;11.65;5.82;;;;;;;;;;2112961;28;20055;-54
2022/02/06 01:21:54;;;;;;;12.75;6.05;;;;;;;;;;2106182;28;20047;-55
2022/02/06 01:22:59;;;;;;;11.48;6.75;;;;;;;;;;2106518;28;20075;-55
2022/02/06 01:24:05;;;;;;;8.98;4.95;;;;;;;;;;2111423;28;20074;-53
2022/02/06 01:25:11;;;;;;;13.38;7.30;;;;;;;;;;2114866;28;20055;-54
2022/02/06 01:26:22;;;;;;;16.73;6.53;;;;;;;;;;2113866;28;20450;-55
2022/02/06 01:27:34;;;;;;;12.32;7.22;;;;;;;;;;2106084;28;20397;-54
2022/02/06 01:28:40;;;;;;;15.80;6.38;;;;;;;;;;2106585;28;20126;-53
2022/02/06 01:29:48;;;;;;;9.15;5.65;;;;;;;;;;2111148;28;20040;-53
2022/02/06 01:30:55;;;;;;;11.73;7.43;;;;;;;;;;2114684;28;20404;-55
2022/02/06 01:32:00;;;;;;;10.18;5.25;;;;;;;;;;2110766;28;20126;-54
2022/02/06 01:33:08;;;;;;;11.80;7.22;;;;;;;;;;2112805;28;20071;-53
2022/02/06 01:34:10;;;;;;;10.50;5.35;;;;;;;;;;2114878;28;20196;-55
2022/02/06 01:35:15;;;;;;;13.98;7.32;;;;;;;;;;2110728;28;20044;-55
2022/02/06 01:36:22;;;;;;;9.30;4.68;;;;;;;;;;2106192;28;20518;-55
2022/02/06 01:37:28;;;;;;;12.32;5.75;;;;;;;;;;2108774;28;20124;-54
2022/02/06 01:38:36;;;;;;;12.82;6.82;;;;;;;;;;2112255;28;20122;-52
2022/02/06 01:39:51;;;;;;;11.80;5.32;;;;;;;;;;2114679;28;20220;-55
2022/02/06 01:41:02;;;;;;;11.57;5.50;;;;;;;;;;2112729;28;20119;-54
2022/02/06 01:42:03;;;;;;;12.35;5.45;;;;;;;;;;2114719;28;20163;-55
2022/02/06 01:43:08;;;;;;;15.98;7.90;;;;;;;;;;2115171;28;20489;-54
2022/02/06 01:44:24;;;;;;;14.18;7.72;;;;;;;;;;2107276;28;20047;-54
2022/02/06 01:45:34;;;;;;;11.60;5.57;;;;;;;;;;2106339;28;20051;-55
2022/02/06 01:46:50;;;;;;;12.38;6.35;;;;;;;;;;2110292;28;20075;-56
2022/02/06 01:57:29;;;;;;;13.48;7.70;;;;;;;;;;2115130;28;20130;-46
2022/02/06 02:01:20;;;;;;;14.98;7.85;;;;;;;;;;2106223;28;20071;-45
2022/02/06 02:03:45;;;;;;;14.70;7.20;;;;;;;;;;2095446;28;20138;-47
2022/02/06 02:05:09;;;;;;;13.82;6.30;;;;;;;;;;2106067;28;20127;-46
2022/02/06 02:07:47;;;;;;;11.85;5.60;;;;;;;;;;2114316;28;20083;-45
2022/02/06 02:09:26;;;;;;;13.82;5.78;;;;;;;;;;2112708;28;20047;-45
2022/02/06 02:12:12;;;;;;;11.55;6.18;;;;;;;;;;2089085;28;20128;-46
2022/02/06 02:13:28;;;;;;;16.95;8.57;;;;;;;;;;2109933;28;20127;-46
2022/02/06 02:14:50;;;;;;;14.98;6.20;;;;;;;;;;2111475;28;20054;-46
2022/02/06 02:19:03;;;;;;;13.73;6.07;;;;;;;;;;2104247;28;20222;-45
2022/02/06 02:20:42;;;;;;;12.23;6.07;;;;;;;;;;2108716;28;20126;-56
2022/02/06 02:22:25;;;;;;;12.90;6.13;;;;;;;;;;2114102;28;20130;-56
2022/02/06 02:23:50;;;;;;;10.68;4.95;;;;;;;;;;2109566;28;20126;-57
2022/02/06 02:25:18;;;;;;;9.98;5.32;;;;;;;;;;2114422;28;20073;-57
2022/02/06 02:26:41;;;;;;;14.38;7.80;;;;;;;;;;2109062;28;20126;-57
2022/02/06 02:27:58;;;;;;;11.25;5.68;;;;;;;;;;2105855;28;20140;-57
2022/02/06 02:30:49;;;;;;;9.98;5.85;;;;;;;;;;2114309;28;20074;-57
2022/02/06 02:33:40;;;;;;;9.95;6.20;;;;;;;;;;2088091;28;20053;-56
2022/02/06 02:45:52;;;;;;;10.38;5.20;;;;;;;;;;2063912;28;20133;-57
2022/02/06 02:46:57;;;;;;;12.70;7.07;;;;;;;;;;2099610;28;20485;-46
2022/02/06 02:48:02;;;;;;;11.90;7.78;;;;;;;;;;2105812;28;20314;-47
2022/02/06 02:49:03;;;;;;;13.13;6.05;;;;;;;;;;2107098;28;20062;-47
2022/02/06 02:50:11;;;;;;;14.73;8.57;;;;;;;;;;2105683;28;20051;-46
2022/02/06 02:51:12;;;;;;;12.95;6.47;;;;;;;;;;2107452;28;20409;-47
2022/02/06 02:52:23;;;;;;;15.35;7.95;;;;;;;;;;2112085;28;20093;-46
2022/02/06 02:53:29;;;;;;;11.25;6.50;;;;;;;;;;2114069;28;20482;-48
2022/02/06 02:54:33;;;;;;;14.55;8.05;;;;;;;;;;2111501;28;20047;-57
2022/02/06 02:55:48;;;;;;;13.68;7.35;;;;;;;;;;2114044;28;20148;-57
2022/02/06 02:57:02;;;;;;;13.18;8.13;;;;;;;;;;2113812;28;20172;-58
2022/02/06 02:58:18;;;;;;;9.73;6.75;;;;;;;;;;2112271;28;20123;-58
2022/02/06 02:59:27;;;;;;;11.57;6.38;;;;;;;;;;2114076;28;20408;-58
2022/02/06 03:00:35;;;;;;;15.25;9.18;;;;;;;;;;2111134;28;20123;-57
2022/02/06 03:01:42;;;;;;;13.48;7.45;;;;;;;;;;2107132;28;20044;-57
2022/02/06 03:02:43;;;;;;;14.82;6.90;;;;;;;;;;2106619;28;20127;-57
2022/02/06 03:03:44;;;;;;;11.20;7.27;;;;;;;;;;2112911;28;20131;-57
2022/02/06 03:04:51;;;;;;;16.38;8.65;;;;;;;;;;2113980;28;20280;-57
2022/02/06 03:05:54;;;;;;;11.20;6.40;;;;;;;;;;2109965;28;20082;-57
2022/02/06 03:06:55;;;;;;;19.88;7.15;;;;;;;;;;2105575;28;20071;-57
2022/02/06 03:08:02;;;;;;;18.02;9.02;;;;;;;;;;2105163;28;20090;-57
2022/02/06 03:09:04;;;;;;;12.82;6.15;;;;;;;;;;2111009;28;20040;-57
2022/02/06 03:10:05;;;;;;;10.93;6.53;;;;;;;;;;2113957;28;20055;-57
2022/02/06 03:11:09;;;;;;;13.80;6.30;;;;;;;;;;2111196;28;20502;-57
2022/02/06 03:12:12;;;;;;;14.80;6.88;;;;;;;;;;2111560;28;20054;-57
2022/02/06 03:13:16;;;;;;;14.10;8.85;;;;;;;;;;2113979;28;20127;-58
2022/02/06 03:14:22;;;;;;;15.60;8.60;;;;;;;;;;2110791;28;20131;-58
2022/02/06 03:15:36;;;;;;;12.48;7.28;;;;;;;;;;2114324;28;20048;-57
2022/02/06 03:16:43;;;;;;;13.05;8.27;;;;;;;;;;2114285;28;20119;-57
2022/02/06 03:17:56;;;;;;;15.40;7.85;;;;;;;;;;2106434;28;20123;-57
2022/02/06 03:19:03;;;;;;;17.23;9.48;;;;;;;;;;2105680;28;20044;-57
2022/02/06 03:20:08;;;;;;;15.40;7.65;;;;;;;;;;2110914;28;20127;-57
2022/02/06 03:21:16;;;;;;;14.23;8.23;;;;;;;;;;2113750;28;20058;-57
2022/02/06 03:22:20;;;;;;;13.80;7.78;;;;;;;;;;2112052;28;21291;-57
2022/02/06 03:23:21;;;;;;;13.30;7.88;;;;;;;;;;2112788;28;20130;-58
2022/02/06 03:24:25;;;;;;;15.52;9.38;;;;;;;;;;2113817;28;20052;-57
2022/02/06 03:25:27;;;;;;;13.65;8.68;;;;;;;;;;2110702;28;20062;-57
2022/02/06 03:26:28;;;;;;;12.65;7.43;;;;;;;;;;2113927;28;20400;-57
2022/02/06 03:27:29;;;;;;;16.58;10.13;;;;;;;;;;2113650;28;20135;-57
2022/02/06 03:28:30;;;;;;;15.43;6.55;;;;;;;;;;2111109;28;20253;-58
2022/02/06 03:29:31;;;;;;;20.33;9.88;;;;;;;;;;2114310;28;20040;-57
2022/02/06 03:30:33;;;;;;;10.73;5.40;;;;;;;;;;2111898;28;20145;-57
2022/02/06 03:31:34;;;;;;;13.90;7.63;;;;;;;;;;2111037;28;20126;-57
2022/02/06 03:32:35;;;;;;;13.90;9.50;;;;;;;;;;2113979;28;20086;-59
2022/02/06 03:33:36;;;;;;;14.20;8.30;;;;;;;;;;2111968;28;20071;-57
2022/02/06 03:34:37;;;;;;;17.20;8.82;;;;;;;;;;2113026;28;20051;-58
2022/02/06 03:35:38;;;;;;;20.15;11.57;;;;;;;;;;2113710;28;20135;-57
2022/02/06 03:36:40;;;;;;;15.65;8.25;;;;;;;;;;2110964;28;20130;-57
2022/02/06 03:37:41;;;;;;;15.75;8.57;;;;;;;;;;2105505;28;20134;-58
2022/02/06 03:38:42;;;;;;;18.83;10.40;;;;;;;;;;2105455;28;20500;-58
2022/02/06 03:39:50;;;;;;;12.65;7.65;;;;;;;;;;2107533;28;20074;-58
2022/02/06 03:40:56;;;;;;;18.00;10.20;;;;;;;;;;2105301;28;20441;-58
2022/02/06 03:42:07;;;;;;;14.60;7.95;;;;;;;;;;2110904;28;20190;-57
2022/02/06 03:43:10;;;;;;;12.80;6.93;;;;;;;;;;2113859;28;20104;-57
2022/02/06 03:44:21;;;;;;;18.10;10.23;;;;;;;;;;2110892;28;20504;-57
2022/02/06 03:45:24;;;;;;;16.77;7.93;;;;;;;;;;2111517;28;20062;-58
2022/02/06 03:46:29;;;;;;;19.63;9.68;;;;;;;;;;2113647;28;20075;-57
2022/02/06 03:47:45;;;;;;;18.08;9.32;;;;;;;;;;2110848;28;20078;-57
2022/02/06 03:48:50;;;;;;;19.17;10.50;;;;;;;;;;2113956;28;20071;-57
2022/02/06 03:49:55;;;;;;;13.93;7.45;;;;;;;;;;2114985;28;20035;-57
2022/02/06 03:51:01;;;;;;;14.02;7.57;;;;;;;;;;2107802;28;20076;-57
2022/02/06 03:52:03;;;;;;;13.65;8.38;;;;;;;;;;2106783;28;20526;-57
2022/02/06 03:53:04;;;;;;;16.95;10.00;;;;;;;;;;2109640;28;20182;-57
2022/02/06 03:54:07;;;;;;;14.25;7.90;;;;;;;;;;2114740;28;20130;-57
2022/02/06 03:55:09;;;;;;;15.90;10.00;;;;;;;;;;2115229;28;20051;-57
2022/02/06 03:56:10;;;;;;;14.65;6.95;;;;;;;;;;2110729;28;20122;-57
2022/02/06 03:57:12;;;;;;;13.87;8.97;;;;;;;;;;2115337;28;20484;-57
2022/02/06 03:58:13;;;;;;;13.25;7.22;;;;;;;;;;2113832;28;20052;-57
2022/02/06 03:59:14;;;;;;;16.52;9.75;;;;;;;;;;2111014;28;20044;-58
2022/02/06 04:00:15;;;;;;;14.80;7.15;;;;;;;;;;2115278;28;20087;-57
2022/02/06 04:01:16;;;;;;;17.23;9.63;;;;;;;;;;2112988;28;20083;-58
2022/02/06 04:02:17;;;;;;;17.40;10.23;;;;;;;;;;2113166;28;20134;-57
2022/02/06 04:03:18;;;;;;;12.60;6.78;;;;;;;;;;2115166;28;20212;-57
2022/02/06 04:04:19;;;;;;;16.65;10.10;;;;;;;;;;2109545;28;20048;-58
2022/02/06 04:05:20;;;;;;;15.50;8.15;;;;;;;;;;2107837;28;20071;-58
2022/02/06 04:06:22;;;;;;;15.82;7.55;;;;;;;;;;2115086;28;20051;-57
2022/02/06 04:07:23;;;;;;;15.35;8.90;;;;;;;;;;2113032;28;20086;-57
2022/02/06 04:08:27;;;;;;;17.42;8.25;;;;;;;;;;2115256;28;20051;-57
2022/02/06 04:09:34;;;;;;;15.18;10.18;;;;;;;;;;2114794;28;20146;-57
2022/02/06 04:10:43;;;;;;;13.15;9.52;;;;;;;;;;2112207;28;20079;-58
2022/02/06 04:11:48;;;;;;;15.07;8.38;;;;;;;;;;2115440;28;20077;-57
2022/02/06 04:12:50;;;;;;;14.50;9.10;;;;;;;;;;2113384;28;20109;-57
2022/02/06 04:14:04;;;;;;;13.85;9.73;;;;;;;;;;2115061;28;20492;-57
2022/02/06 04:15:10;;;;;;;10.60;6.20;;;;;;;;;;2115161;28;20040;-57
2022/02/06 04:16:15;;;;;;;16.63;7.80;;;;;;;;;;2111724;28;20494;-57
2022/02/06 04:17:21;;;;;;;14.18;8.82;;;;;;;;;;2115163;28;20051;-58
2022/02/06 04:18:28;;;;;;;15.88;9.65;;;;;;;;;;2113544;28;20072;-58
2022/02/06 04:19:29;;;;;;;15.80;7.47;;;;;;;;;;2106752;28;20473;-57
2022/02/06 04:20:31;;;;;;;;;;;;;;;;;;2107194;28;20048;-57
2022/02/06 04:21:32;;;;;;;13.93;7.00;;;;;;;;;;2111808;28;19927;-57
2022/02/06 04:22:33;;;;;;;17.08;8.48;;;;;;;;;;2115155;28;20047;-57
2022/02/06 04:23:34;;;;;;;18.52;8.65;;;;;;;;;;2114947;28;20126;-58
2022/02/06 04:24:35;;;;;;;11.20;6.32;;;;;;;;;;2112185;28;20071;-57
2022/02/06 04:25:37;;;;;;;13.23;9.50;;;;;;;;;;2115029;28;20059;-57
2022/02/06 04:26:58;;;;;;;13.75;6.82;;;;;;;;;;2111880;28;20138;-57
2022/02/06 04:27:59;;;;;;;16.17;9.98;;;;;;;;;;2115208;28;20047;-46
2022/02/06 04:29:00;;;;;;;14.60;7.28;;;;;;;;;;2114590;28;20047;-45
2022/02/06 04:30:02;;;;;;;13.55;7.22;;;;;;;;;;2112066;28;21583;-46
2022/02/06 04:31:03;;;;;;;14.40;7.90;;;;;;;;;;2115047;28;20131;-47
2022/02/06 04:32:05;;;;;;;13.13;8.30;;;;;;;;;;2113616;28;20481;-45
2022/02/06 04:33:06;;;;;;;17.48;9.95;;;;;;;;;;2107419;28;20123;-46
2022/02/06 04:34:07;;;;;;;13.30;7.20;;;;;;;;;;2106682;28;20465;-46
2022/02/06 04:35:14;;;;;;;13.63;7.80;;;;;;;;;;2108844;28;20091;-45
2022/02/06 04:36:15;;;;;;;14.18;10.25;;;;;;;;;;2107261;28;20482;-45
2022/02/06 04:37:25;;;;;;;12.32;6.82;;;;;;;;;;2106690;28;20068;-45
2022/02/06 04:38:47;;;;;;;16.15;9.88;;;;;;;;;;2111526;28;20509;-45
2022/02/06 04:40:04;;;;;;;13.48;6.93;;;;;;;;;;2114989;28;20461;-46
2022/02/06 04:41:20;;;;;;;13.48;7.57;;;;;;;;;;2111630;28;20048;-46
2022/02/06 04:42:32;;;;;;;18.33;9.48;;;;;;;;;;2114964;28;20039;-46
2022/02/06 04:45:24;;;;;;;15.80;8.88;;;;;;;;;;2106572;28;20044;-45
2022/02/06 04:54:58;;;;;;;14.90;7.38;;;;;;;;;;2115053;28;20096;-46
2022/02/06 05:14:43;;;;;;;12.88;7.43;;;;;;;;;;2108685;28;20051;-56
2022/02/06 05:16:02;;;;;;;17.63;10.05;;;;;;;;;;2107170;28;20161;-56
2022/02/06 05:24:39;;;;;;;19.73;9.82;;;;;;;;;;2107733;28;20318;-56
2022/02/06 05:25:58;;;;;;;17.77;9.25;;;;;;;;;;2105709;28;20159;-56
2022/02/06 05:27:14;;;;;;;13.48;7.93;;;;;;;;;;2107192;28;20127;-57
2022/02/06 05:29:46;;;;;;;20.73;9.13;;;;;;;;;;2104527;28;20484;-56
2022/02/06 05:30:51;;;;;;;16.15;8.25;;;;;;;;;;2114633;28;20138;-57
2022/02/06 05:32:12;;;;;;;16.33;9.88;;;;;;;;;;2112694;28;20512;-56
2022/02/06 05:33:13;;;;;;;16.17;10.73;;;;;;;;;;2106302;28;20076;-45
2022/02/06 05:34:14;;;;;;;16.33;8.70;;;;;;;;;;2106877;28;20044;-47
2022/02/06 05:35:15;;;;;;;20.13;11.20;;;;;;;;;;2111231;28;20147;-48
2022/02/06 05:36:16;;;;;;;15.82;7.65;;;;;;;;;;2114572;28;20079;-45
2022/02/06 05:37:17;;;;;;;18.20;11.18;;;;;;;;;;2114039;28;20071;-48
2022/02/06 05:38:18;;;;;;;15.70;7.97;;;;;;;;;;2111693;28;20096;-45
2022/02/06 05:39:19;;;;;;;16.52;10.20;;;;;;;;;;2114561;28;20128;-46
2022/02/06 05:40:20;;;;;;;17.30;11.25;;;;;;;;;;2109925;28;20098;-48
2022/02/06 05:41:23;;;;;;;14.65;8.15;;;;;;;;;;2113061;28;20104;-46
2022/02/06 05:42:24;;;;;;;18.27;9.57;;;;;;;;;;2114421;28;20124;-47
2022/02/06 05:43:26;;;;;;;15.83;8.57;;;;;;;;;;2109845;28;20048;-56
2022/02/06 05:44:27;;;;;;;15.75;10.93;;;;;;;;;;2106126;28;20063;-56
2022/02/06 05:45:28;;;;;;;19.33;9.00;;;;;;;;;;2106098;28;20055;-56
2022/02/06 05:46:29;;;;;;;20.13;11.00;;;;;;;;;;2111384;28;20154;-56
2022/02/06 05:47:33;;;;;;;16.05;9.32;;;;;;;;;;2114394;28;20052;-55
2022/02/06 05:48:34;;;;;;;18.52;8.05;;;;;;;;;;2114557;28;20511;-56
2022/02/06 05:49:35;;;;;;;15.63;10.43;;;;;;;;;;2111415;28;20039;-56
2022/02/06 05:50:38;;;;;;;18.02;9.55;;;;;;;;;;2114399;28;20079;-56
2022/02/06 05:51:39;;;;;;;15.55;8.70;;;;;;;;;;2109890;28;20047;-56
2022/02/06 05:52:41;;;;;;;18.73;11.40;;;;;;;;;;2113335;28;20549;-56
2022/02/06 05:53:42;;;;;;;15.95;8.02;;;;;;;;;;2114759;28;20071;-56
2022/02/06 05:54:43;;;;;;;18.13;11.52;;;;;;;;;;2108722;28;20047;-54
2022/02/06 05:55:45;;;;;;;13.52;8.90;;;;;;;;;;2114364;28;20047;-55
2022/02/06 05:56:46;;;;;;;17.73;11.02;;;;;;;;;;2114587;28;20181;-54
2022/02/06 05:57:47;;;;;;;15.30;8.70;;;;;;;;;;2111132;28;20101;-54
2022/02/06 05:58:49;;;;;;;18.40;9.55;;;;;;;;;;2114521;28;20063;-55
2022/02/06 05:59:50;;;;;;;;;;;;;;;;;;2115561;28;20178;-54
2022/02/06 06:00:51;;;;;;;17.60;8.90;;;;;;;;;;2110209;28;20339;-54
2022/02/06 06:01:52;;;;;;;19.45;10.43;;;;;;;;;;2105833;28;20047;-55
2022/02/06 06:02:53;;;;;;;15.35;10.75;;;;;;;;;;2107865;28;20066;-55
2022/02/06 06:03:55;;;;;;;18.20;9.30;;;;;;;;;;2112889;28;20027;-43
2022/02/06 06:04:56;;;;;;;18.23;9.40;;;;;;;;;;2114355;28;20123;-45
2022/02/06 06:05:57;;;;;;;;;;;;;;;;;;2112383;28;20044;-43
2022/02/06 06:07:01;;;;;;;16.02;9.32;;;;;;;;;;2105895;28;19993;-47
2022/02/06 06:08:03;;;;;;;20.90;12.70;;;;;;;;;;2105683;28;20762;-46
2022/02/06 06:09:05;;;;;;;;;;;;;;;;;;2109479;28;20696;-44
2022/02/06 06:10:06;;;;;;;17.10;8.07;;;;;;;;;;2114519;28;20146;-48
2022/02/06 06:11:08;;;;;;;19.35;10.25;;;;;;;;;;2115086;28;20094;-44
2022/02/06 06:12:10;;;;;;;17.35;11.55;;;;;;;;;;2104820;28;20078;-46
2022/02/06 06:13:11;;;;;;;17.67;9.05;;;;;;;;;;2096841;28;20124;-46
2022/02/06 06:14:12;;;;;;;18.08;12.02;;;;;;;;;;2098686;28;20068;-48
2022/02/06 06:15:14;;;;;;;21.10;12.55;;;;;;;;;;2105805;28;20488;-47
2022/02/06 06:16:15;;;;;;;17.25;9.48;;;;;;;;;;2106297;28;20079;-54
2022/02/06 06:17:16;;;;;;;15.20;10.27;;;;;;;;;;2108543;28;20052;-53
2022/02/06 06:18:17;;;;;;;18.35;12.35;;;;;;;;;;2114534;28;20494;-53
2022/02/06 06:19:18;;;;;;;20.60;9.75;;;;;;;;;;2114426;28;20055;-53
2022/02/06 06:20:20;;;;;;;19.13;11.40;;;;;;;;;;2111312;28;20074;-43
2022/02/06 06:21:24;;;;;;;19.48;11.52;;;;;;;;;;2114325;28;20079;-45
2022/02/06 06:22:29;;;;;;;18.70;11.88;;;;;;;;;;2113288;28;20130;-47
2022/02/06 06:23:30;;;;;;;20.67;11.55;;;;;;;;;;2112279;28;20209;-47
2022/02/06 06:24:34;;;;;;;19.50;11.68;;;;;;;;;;2114442;28;20082;-44
2022/02/06 06:25:36;;;;;;;18.65;12.35;;;;;;;;;;2111846;28;20469;-54
2022/02/06 06:26:39;;;;;;;18.08;10.05;;;;;;;;;;2106110;28;20076;-53
2022/02/06 06:27:40;;;;;;;15.88;9.98;;;;;;;;;;2106124;28;20327;-57
2022/02/06 06:28:42;;;;;;;22.17;13.15;;;;;;;;;;2112053;28;20050;-54
2022/02/06 06:29:44;;;;;;;19.83;12.93;;;;;;;;;;2114592;28;20048;-48
2022/02/06 06:30:45;;;;;;;22.17;10.77;;;;;;;;;;2113434;28;20044;-43
2022/02/06 06:31:47;;;;;;;18.45;11.80;;;;;;;;;;2110877;28;20074;-44
2022/02/06 06:32:48;;;;;;;15.57;8.50;;;;;;;;;;2114484;28;20078;-44
2022/02/06 06:33:49;;;;;;;23.77;11.27;;;;;;;;;;2111198;28;20040;-45
2022/02/06 06:34:51;;;;;;;21.38;10.40;;;;;;;;;;2113177;28;20128;-54
2022/02/06 06:35:53;;;;;;;23.80;13.93;;;;;;;;;;2114182;28;20082;-45
2022/02/06 06:36:54;;;;;;;19.63;13.45;;;;;;;;;;2111608;28;20040;-45
2022/02/06 06:37:57;;;;;;;14.88;8.60;;;;;;;;;;2114234;28;20145;-45
2022/02/06 06:38:58;;;;;;;19.05;12.50;;;;;;;;;;2114344;28;20040;-45
2022/02/06 06:40:20;;;;;;;21.40;11.75;;;;;;;;;;2111568;28;20488;-54
2022/02/06 06:41:21;;;;;;;20.95;10.88;;;;;;;;;;2114294;28;20178;-54
2022/02/06 06:42:22;;;;;;;17.73;10.48;;;;;;;;;;2113498;28;20156;-54
2022/02/06 06:43:23;;;;;;;18.67;11.93;;;;;;;;;;2112882;28;20052;-54
2022/02/06 06:44:24;;;;;;;17.83;8.90;;;;;;;;;;2114182;28;20047;-53
2022/02/06 06:45:27;;;;;;;19.75;12.80;;;;;;;;;;2111257;28;20051;-54
2022/02/06 06:46:27;;;;;;;16.38;8.55;;;;;;;;;;2105870;28;20089;-54
2022/02/06 06:47:29;;;;;;;17.67;12.05;;;;;;;;;;2105816;28;20052;-54
2022/02/06 06:48:30;;;;;;;15.35;9.13;;;;;;;;;;2109718;28;20117;-50
2022/02/06 06:49:31;;;;;;;18.35;11.32;;;;;;;;;;2105765;28;20154;-53
2022/02/06 06:50:33;;;;;;;16.20;9.60;;;;;;;;;;2107675;28;20093;-52
2022/02/06 06:51:34;;;;;;;20.70;9.77;;;;;;;;;;2106311;28;20044;-53
2022/02/06 06:52:35;;;;;;;15.97;11.67;;;;;;;;;;2105914;28;20413;-53
2022/02/06 06:53:40;;;;;;;18.35;11.30;;;;;;;;;;2108824;28;20184;-54
2022/02/06 06:54:44;;;;;;;21.45;13.73;;;;;;;;;;2112149;28;20096;-44
2022/02/06 06:55:51;;;;;;;20.17;9.98;;;;;;;;;;2114217;28;20135;-44
2022/02/06 06:56:57;;;;;;;21.27;12.98;;;;;;;;;;2109282;28;20134;-45
2022/02/06 06:58:07;;;;;;;17.52;8.70;;;;;;;;;;2105776;28;20071;-44
2022/02/06 06:59:26;;;;;;;19.92;13.20;;;;;;;;;;2105815;28;21087;-54
2022/02/06 07:00:38;;;;;;;20.70;9.45;;;;;;;;;;2114261;28;20079;-53
2022/02/06 07:01:45;;;;;;;22.10;12.40;;;;;;;;;;2108890;28;20134;-54
2022/02/06 07:02:46;;;;;;;18.80;11.43;;;;;;;;;;2106533;28;20166;-54
2022/02/06 07:03:47;;;;;;;18.95;11.85;;;;;;;;;;2105928;28;20134;-54
2022/02/06 07:04:49;;;;;;;17.17;10.60;;;;;;;;;;2110482;28;20467;-54
2022/02/06 07:05:51;;;;;;;16.35;10.68;;;;;;;;;;2112707;28;20075;-54
2022/02/06 07:06:52;;;;;;;20.50;13.30;;;;;;;;;;2114134;28;20517;-53
2022/02/06 07:07:55;;;;;;;17.95;9.88;;;;;;;;;;2111057;28;20068;-52
2022/02/06 07:08:55;;;;;;;22.88;13.32;;;;;;;;;;2114132;28;20564;-53
2022/02/06 07:09:57;;;;;;;18.67;10.77;;;;;;;;;;2114151;28;20055;-55
2022/02/06 07:10:58;;;;;;;19.33;10.38;;;;;;;;;;2111051;28;20458;-54
2022/02/06 07:11:59;;;;;;;18.30;10.73;;;;;;;;;;2114179;28;20134;-54
2022/02/06 07:13:00;;;;;;;21.75;12.57;;;;;;;;;;2114567;28;20454;-55
2022/02/06 07:14:01;;;;;;;19.55;9.68;;;;;;;;;;2110630;28;20078;-55
2022/02/06 07:15:02;;;;;;;18.00;12.90;;;;;;;;;;2114206;28;20052;-54
2022/02/06 07:16:06;;;;;;;16.55;9.02;;;;;;;;;;2112598;28;20134;-54
2022/02/06 07:17:07;;;;;;;21.83;11.88;;;;;;;;;;2112024;28;20123;-54
2022/02/06 07:18:11;;;;;;;18.40;12.45;;;;;;;;;;2114227;28;20044;-55
2022/02/06 07:19:12;;;;;;;19.77;10.55;;;;;;;;;;2110833;28;20040;-55
2022/02/06 07:20:13;;;;;;;16.33;9.30;;;;;;;;;;2114126;28;20047;-55
2022/02/06 07:21:14;;;;;;;17.85;11.35;;;;;;;;;;2114100;28;20058;-55
2022/02/06 07:22:17;;;;;;;18.05;11.13;;;;;;;;;;2111370;28;20508;-55
2022/02/06 07:23:18;;;;;;;18.77;10.95;;;;;;;;;;2114699;28;20071;-55
2022/02/06 07:24:21;;;;;;;17.80;9.52;;;;;;;;;;2115906;28;20482;-53
2022/02/06 07:25:22;;;;;;;17.15;11.20;;;;;;;;;;2112469;28;20130;-54
2022/02/06 07:26:25;;;;;;;20.38;11.18;;;;;;;;;;2115486;28;20560;-54
2022/02/06 07:27:29;;;;;;;19.33;12.65;;;;;;;;;;2113680;28;20143;-52
2022/02/06 07:28:30;;;;;;;18.73;11.07;;;;;;;;;;2114375;28;20214;-52
2022/02/06 07:29:32;;;;;;;17.00;9.73;;;;;;;;;;2115665;28;20078;-49
2022/02/06 07:30:33;;;;;;;20.15;12.52;;;;;;;;;;2112367;28;20040;-49
2022/02/06 07:31:41;;;;;;;17.00;10.23;;;;;;;;;;2115504;28;20075;-50
2022/02/06 07:32:43;;;;;;;22.60;13.88;;;;;;;;;;2114663;28;20100;-50
2022/02/06 07:33:44;;;;;;;20.83;12.68;;;;;;;;;;2111056;28;20130;-50
2022/02/06 07:34:45;;;;;;;18.30;9.57;;;;;;;;;;2115519;28;20559;-49
2022/02/06 07:35:46;;;;;;;19.17;11.20;;;;;;;;;;2112198;28;20062;-50